Time;durP1;ratioP1;P1;durP2;ratioP2;P2;SDS_P1;SDS_P2;PMS_P1;PMS_P2;Temp;Humidity;BMP_temperature;BMP_pressure;BME280_temperature;BME280_humidity;BME280_pressure;Samples;Min_cycle;Max_cycle;Signal;HPM_P1;HPM_P2
2022/08/14 00:00:38;;;;;;;2.55;1.38;;;;;;;24.01;30.46;100374.09;5054231;28;20128;-52
2022/08/14 00:03:04;;;;;;;1.52;1.13;;;;;;;24.03;30.19;100377.34;5071124;28;20043;-49
2022/08/14 00:05:30;;;;;;;1.10;1.00;;;;;;;23.95;30.02;100381.53;5055465;28;20025;-48
2022/08/14 00:07:56;;;;;;;1.95;1.10;;;;;;;23.88;30.49;100375.53;5054647;28;20033;-49
2022/08/14 00:10:22;;;;;;;1.20;0.90;;;;;;;23.91;30.44;100375.78;5071020;28;20025;-52
2022/08/14 00:12:52;;;;;;;1.33;1.13;;;;;;;23.82;30.81;100377.50;5054287;28;20040;-52
2022/08/14 00:15:24;;;;;;;1.00;0.90;;;;;;;23.76;31.16;100373.13;5054003;28;20037;-51
2022/08/14 00:17:51;;;;;;;1.33;1.00;;;;;;;23.75;30.26;100369.59;5055217;28;20051;-52
2022/08/14 00:20:21;;;;;;;0.95;0.95;;;;;;;23.70;30.56;100375.09;5054970;28;20467;-49
2022/08/14 00:22:47;;;;;;;1.33;1.00;;;;;;;23.55;30.84;100366.94;5053944;28;20118;-50
2022/08/14 00:25:13;;;;;;;3.13;1.00;;;;;;;23.55;30.55;100365.03;5053880;28;20103;-53
2022/08/14 00:27:39;;;;;;;1.83;1.10;;;;;;;23.48;30.76;100355.50;5071033;28;20037;-51
2022/08/14 00:30:08;;;;;;;2.30;1.20;;;;;;;23.39;30.84;100347.84;5054825;28;20529;-51
2022/08/14 00:32:34;;;;;;;2.80;1.55;;;;;;;23.43;31.33;100350.84;5069873;28;20048;-53
2022/08/14 00:35:00;;;;;;;1.42;1.25;;;;;;;23.44;30.80;100349.75;5069805;28;20025;-51
2022/08/14 00:37:28;;;;;;;2.08;1.00;;;;;;;23.39;31.37;100356.06;5054297;28;20584;-51
2022/08/14 00:39:54;;;;;;;1.45;1.35;;;;;;;23.35;31.31;100346.78;5053983;28;20039;-52
2022/08/14 00:42:20;;;;;;;1.40;1.30;;;;;;;23.20;31.64;100330.41;5054639;28;20033;-48
2022/08/14 00:44:46;;;;;;;1.80;1.40;;;;;;;23.14;31.82;100321.41;5054495;28;20059;-49
2022/08/14 00:47:13;;;;;;;1.33;1.23;;;;;;;23.16;32.14;100332.06;5054478;28;20029;-47
2022/08/14 00:49:39;;;;;;;2.20;1.20;;;;;;;23.12;31.90;100331.81;5054868;28;20021;-48
2022/08/14 00:52:05;;;;;;;1.45;1.23;;;;;;;23.04;32.44;100320.63;5074489;28;20484;-47
2022/08/14 00:54:32;;;;;;;1.90;1.20;;;;;;;22.96;32.38;100322.00;5074042;28;20475;-48
2022/08/14 00:56:58;;;;;;;1.13;1.00;;;;;;;22.90;33.15;100310.25;5056579;28;20036;-47
2022/08/14 00:59:27;;;;;;;3.00;1.45;;;;;;;22.85;33.23;100313.00;5074533;28;20054;-48
2022/08/14 01:01:56;;;;;;;1.30;1.13;;;;;;;22.83;34.17;100320.66;5074532;28;20032;-49
2022/08/14 01:04:23;;;;;;;4.03;1.20;;;;;;;22.80;33.07;100323.97;5056010;28;20032;-47
2022/08/14 01:06:50;;;;;;;1.33;1.00;;;;;;;22.78;32.96;100315.22;5056504;28;20036;-49
2022/08/14 01:09:21;;;;;;;1.00;0.98;;;;;;;22.76;33.25;100312.75;5074222;28;20033;-47
2022/08/14 01:11:51;;;;;;;1.20;1.08;;;;;;;22.70;33.80;100307.56;5072925;28;20080;-47
2022/08/14 01:14:18;;;;;;;6.22;1.40;;;;;;;22.57;34.49;100300.78;5074102;28;20032;-46
2022/08/14 01:16:46;;;;;;;1.20;1.10;;;;;;;22.41;33.56;100283.56;5056111;28;20070;-47
2022/08/14 01:21:58;;;;;;;0.90;0.90;;;;;;;22.54;33.75;100304.84;5062410;28;20103;-47
2022/08/14 01:24:25;;;;;;;1.00;0.90;;;;;;;22.49;34.33;100307.63;5074891;28;20032;-48
2022/08/14 01:26:52;;;;;;;0.85;0.85;;;;;;;22.48;34.17;100305.97;5075425;28;20025;-47
2022/08/14 01:29:19;;;;;;;2.13;1.20;;;;;;;22.44;34.18;100304.91;5058273;28;20110;-48
2022/08/14 01:31:46;;;;;;;2.47;1.13;;;;;;;22.41;33.95;100302.69;5075817;28;20031;-47
2022/08/14 01:34:14;;;;;;;2.70;1.20;;;;;;;22.32;34.47;100288.75;5058088;28;20074;-48
2022/08/14 01:36:40;;;;;;;3.42;1.50;;;;;;;22.28;35.73;100300.53;5078992;28;20060;-47
2022/08/14 01:39:12;;;;;;;2.60;1.30;;;;;;;22.18;35.37;100299.44;5075739;28;20084;-47
2022/08/14 01:41:38;;;;;;;3.00;1.33;;;;;;;22.05;35.11;100297.25;5079040;28;20043;-48
2022/08/14 01:44:10;;;;;;;1.20;1.00;;;;;;;22.06;35.05;100306.28;5061678;28;20024;-48
2022/08/14 01:46:39;;;;;;;1.15;1.00;;;;;;;22.00;35.37;100306.28;5058128;28;20028;-47
2022/08/14 01:49:08;;;;;;;1.40;1.25;;;;;;;21.99;35.54;100310.13;5084071;28;20465;-46
2022/08/14 01:51:36;;;;;;;1.42;1.33;;;;;;;21.99;35.08;100298.34;5071199;28;20049;-47
2022/08/14 01:54:08;;;;;;;1.92;1.30;;;;;;;21.93;35.94;100304.91;5089007;28;20033;-47
2022/08/14 01:56:37;;;;;;;1.30;1.20;;;;;;;21.94;35.59;100310.09;5084811;28;20488;-47
2022/08/14 01:59:18;;;;;;;2.55;1.45;;;;;;;21.94;36.26;100296.44;5082365;28;20469;-48
2022/08/14 02:01:45;;;;;;;3.63;1.45;;;;;;;21.85;36.11;100304.34;5082183;28;20035;-49
2022/08/14 02:04:11;;;;;;;3.50;1.30;;;;;;;21.78;35.80;100303.78;5083078;28;20028;-49
2022/08/14 02:06:37;;;;;;;1.27;1.17;;;;;;;21.73;36.13;100295.63;5065326;28;20039;-47
2022/08/14 02:09:04;;;;;;;2.33;1.20;;;;;;;21.71;35.95;100288.75;5082998;28;20071;-50
2022/08/14 02:11:30;;;;;;;5.50;1.52;;;;;;;21.68;36.24;100286.59;5082560;28;20372;-48
2022/08/14 02:14:03;;;;;;;1.33;1.10;;;;;;;21.74;36.57;100291.78;5088008;28;20353;-47
2022/08/14 02:16:35;;;;;;;1.95;1.20;;;;;;;21.67;35.85;100287.66;5085795;28;20028;-48
2022/08/14 02:19:05;;;;;;;2.55;1.50;;;;;;;21.54;36.67;100291.75;5086433;28;20032;-46
2022/08/14 02:21:31;;;;;;;2.45;1.48;;;;;;;21.49;36.19;100281.66;5086250;28;20452;-48
2022/08/14 02:24:00;;;;;;;1.50;0.95;;;;;;;21.52;36.32;100291.22;5069912;28;20032;-46
2022/08/14 02:26:30;;;;;;;1.45;1.33;;;;;;;21.48;36.28;100287.38;5084936;28;20090;-46
2022/08/14 02:29:00;;;;;;;1.75;0.98;;;;;;;21.48;36.33;100279.19;5066098;28;20162;-46
2022/08/14 02:31:31;;;;;;;1.33;1.23;;;;;;;21.44;36.41;100285.19;5089659;28;20356;-46
2022/08/14 02:34:02;;;;;;;2.42;1.02;;;;;;;21.41;36.14;100276.66;5090871;28;20396;-48
2022/08/14 02:36:28;;;;;;;2.72;1.45;;;;;;;21.35;36.63;100270.38;5088052;28;20028;-47
2022/08/14 02:38:54;;;;;;;2.05;1.08;;;;;;;21.29;36.45;100276.94;5083744;28;20471;-46
2022/08/14 02:41:20;;;;;;;1.10;1.00;;;;;;;21.28;36.58;100269.81;5081658;28;20025;-48
2022/08/14 02:43:46;;;;;;;1.10;0.90;;;;;;;21.16;36.74;100264.59;5079526;28;20039;-46
2022/08/14 02:46:13;;;;;;;1.08;1.08;;;;;;;21.10;36.30;100256.66;5082137;28;20028;-49
2022/08/14 02:48:40;;;;;;;4.43;0.90;;;;;;;21.11;36.61;100255.56;5083060;28;20029;-47
2022/08/14 02:51:10;;;;;;;0.90;0.90;;;;;;;20.96;36.43;100243.50;5083301;28;20048;-45
2022/08/14 02:53:39;;;;;;;2.03;1.52;;;;;;;21.08;36.79;100267.88;5083284;28;20396;-49
2022/08/14 02:56:06;;;;;;;0.88;0.82;;;;;;;21.00;36.67;100255.53;5080231;28;20460;-46
2022/08/14 02:58:37;;;;;;;4.28;1.40;;;;;;;20.93;37.00;100265.91;5060270;28;20123;-46
2022/08/14 03:01:05;;;;;;;1.15;0.90;;;;;;;20.86;36.98;100260.69;5076841;28;20037;-46
2022/08/14 03:03:31;;;;;;;0.80;0.80;;;;;;;20.74;37.21;100245.63;5076677;28;20031;-46
2022/08/14 03:05:57;;;;;;;1.20;1.10;;;;;;;20.76;37.39;100259.81;5076230;28;20029;-46
2022/08/14 03:08:30;;;;;;;3.00;0.80;;;;;;;20.68;37.45;100256.50;5076745;28;20028;-47
2022/08/14 03:10:57;;;;;;;4.87;0.90;;;;;;;20.54;37.92;100263.53;5076450;28;20027;-46
2022/08/14 03:13:23;;;;;;;1.40;1.10;;;;;;;20.49;37.89;100249.84;5058836;28;20052;-47
2022/08/14 03:15:51;;;;;;;1.38;0.73;;;;;;;20.53;37.72;100247.41;5058737;28;20103;-46
2022/08/14 03:18:17;;;;;;;1.67;1.02;;;;;;;20.43;37.77;100234.53;5076825;28;20060;-46
2022/08/14 03:20:43;;;;;;;1.20;0.90;;;;;;;20.45;38.16;100248.75;5058552;28;20039;-46
2022/08/14 03:23:09;;;;;;;4.22;1.15;;;;;;;20.37;38.25;100249.22;5076555;28;20029;-47
2022/08/14 03:25:34;;;;;;;1.08;0.90;;;;;;;20.31;38.22;100245.66;5077177;28;20463;-49
2022/08/14 03:28:04;;;;;;;1.38;1.08;;;;;;;20.25;38.47;100250.25;5077664;28;20110;-51
2022/08/14 03:30:30;;;;;;;0.80;0.80;;;;;;;20.23;38.44;100235.25;5080272;28;20032;-47
2022/08/14 03:32:57;;;;;;;3.47;1.10;;;;;;;20.28;38.42;100237.97;5077927;28;20089;-48
2022/08/14 03:35:23;;;;;;;1.10;1.00;;;;;;;20.26;38.46;100240.16;5079599;28;20021;-48
2022/08/14 03:37:52;;;;;;;4.00;1.40;;;;;;;20.19;38.68;100237.69;5079618;28;20028;-47
2022/08/14 03:40:19;;;;;;;4.18;1.17;;;;;;;20.15;39.01;100233.84;5083740;28;20056;-48
2022/08/14 03:42:45;;;;;;;1.33;1.10;;;;;;;20.04;38.97;100230.22;5081494;28;20082;-49
2022/08/14 03:45:12;;;;;;;1.83;1.38;;;;;;;19.94;39.04;100221.97;5079811;28;20365;-49
2022/08/14 03:47:39;;;;;;;1.13;1.02;;;;;;;19.88;38.91;100214.84;5062803;28;20460;-48
2022/08/14 03:50:08;;;;;;;2.97;1.25;;;;;;;19.93;39.17;100231.25;5059326;28;20049;-47
2022/08/14 03:52:35;;;;;;;1.67;1.00;;;;;;;19.95;39.16;100236.41;5059179;28;20111;-48
2022/08/14 03:55:02;;;;;;;1.40;1.10;;;;;;;19.96;39.03;100236.16;5060060;28;20033;-48
2022/08/14 03:57:31;;;;;;;2.40;1.27;;;;;;;19.85;39.58;100224.34;5060333;28;20055;-48
2022/08/14 03:59:57;;;;;;;1.90;1.13;;;;;;;19.83;39.45;100214.81;5059726;28;20063;-46
2022/08/14 04:02:23;;;;;;;1.42;1.30;;;;;;;19.84;39.70;100228.16;5060938;28;20161;-46
2022/08/14 04:04:50;;;;;;;1.15;1.08;;;;;;;19.77;39.94;100232.19;5064796;28;20021;-46
2022/08/14 04:07:16;;;;;;;2.28;0.98;;;;;;;19.57;40.10;100200.13;5069835;28;20032;-48
2022/08/14 04:09:42;;;;;;;2.15;1.15;;;;;;;19.61;40.23;100229.28;5068615;28;20029;-48
2022/08/14 04:12:07;;;;;;;0.90;0.90;;;;;;;19.59;40.22;100226.00;5066923;28;20044;-49
2022/08/14 04:14:33;;;;;;;3.38;1.20;;;;;;;19.58;40.38;100220.84;5064822;28;20044;-47
2022/08/14 04:16:59;;;;;;;1.33;1.23;;;;;;;19.58;40.34;100223.56;5064753;28;20035;-50
2022/08/14 04:19:25;;;;;;;1.90;1.25;;;;;;;19.49;40.66;100195.97;5065220;28;20033;-51
2022/08/14 04:21:51;;;;;;;1.30;1.20;;;;;;;19.47;40.78;100209.84;5065342;28;20025;-51
2022/08/14 04:24:17;;;;;;;3.00;1.13;;;;;;;19.45;40.52;100205.75;5062050;28;20505;-53
2022/08/14 04:26:43;;;;;;;1.30;1.20;;;;;;;19.43;40.47;100203.28;5060647;28;20034;-48
2022/08/14 04:29:12;;;;;;;1.00;1.00;;;;;;;19.48;40.55;100207.94;5059443;28;20028;-52
2022/08/14 04:31:38;;;;;;;2.47;1.05;;;;;;;19.42;40.40;100209.00;5057884;28;20462;-50
2022/08/14 04:34:05;;;;;;;1.38;1.27;;;;;;;19.40;40.71;100211.97;5057697;28;20033;-49
2022/08/14 04:43:34;;;;;;;5.25;1.40;;;;;;;19.33;41.26;100212.19;5057340;28;20032;-48
2022/08/14 04:44:49;;;;;;;1.67;1.23;;;;;;;19.15;41.29;100202.47;5054158;28;20029;-47
2022/08/14 04:50:02;;;;;;;1.40;1.10;;;;;;;19.20;41.17;100207.16;5057293;28;20451;-49
2022/08/14 04:52:28;;;;;;;1.20;1.10;;;;;;;19.18;41.29;100203.03;5075051;28;20025;-48
2022/08/14 04:54:54;;;;;;;5.68;1.10;;;;;;;19.14;41.31;100194.56;5056770;28;20097;-48
2022/08/14 04:57:20;;;;;;;2.67;1.02;;;;;;;19.13;41.31;100195.66;5073971;28;20039;-47
2022/08/14 04:59:45;;;;;;;2.22;1.20;;;;;;;19.12;41.49;100205.72;5075401;28;20051;-50
2022/08/14 05:02:12;;;;;;;1.30;1.20;;;;;;;19.09;41.37;100205.41;5075342;28;20032;-47
2022/08/14 05:04:38;;;;;;;3.15;1.30;;;;;;;19.05;41.42;100204.28;5057945;28;20473;-47
2022/08/14 05:07:04;;;;;;;1.50;1.25;;;;;;;19.04;41.66;100200.75;5057791;28;20040;-47
2022/08/14 05:09:30;;;;;;;1.30;1.20;;;;;;;19.00;41.61;100199.63;5075715;28;20025;-50
2022/08/14 05:11:56;;;;;;;4.82;1.30;;;;;;;18.93;42.18;100196.28;5058642;28;20028;-48
2022/08/14 05:14:22;;;;;;;1.55;1.45;;;;;;;18.87;42.03;100191.81;5078502;28;20033;-48
2022/08/14 05:16:48;;;;;;;1.10;1.00;;;;;;;18.93;41.94;100190.81;5075839;28;20128;-49
2022/08/14 05:19:14;;;;;;;1.20;1.10;;;;;;;18.97;41.63;100191.94;5075278;28;20031;-47
2022/08/14 05:21:41;;;;;;;3.55;1.25;;;;;;;18.97;42.03;100185.69;5080735;28;20039;-49
2022/08/14 05:24:08;;;;;;;1.00;1.00;;;;;;;18.98;41.75;100182.72;5042507;28;20484;-52
2022/08/14 05:26:33;;;;;;;2.70;1.40;;;;;;;19.00;41.79;100168.84;5058297;28;20103;-49
2022/08/14 05:28:59;;;;;;;1.75;1.30;;;;;;;18.99;41.93;100169.94;5076396;28;20060;-48
2022/08/14 05:31:25;;;;;;;2.25;1.20;;;;;;;18.96;41.45;100163.06;5075025;28;20035;-48
2022/08/14 05:33:52;;;;;;;1.70;1.20;;;;;;;18.97;41.57;100170.19;5039877;28;20028;-47
2022/08/14 05:36:18;;;;;;;1.13;1.02;;;;;;;18.94;41.63;100166.09;5074234;28;20037;-47
2022/08/14 05:38:46;;;;;;;3.17;1.20;;;;;;;18.92;42.18;100170.13;5057107;28;20074;-50
2022/08/14 05:41:16;;;;;;;3.28;1.42;;;;;;;18.87;43.13;100168.19;5075128;28;20028;-47
2022/08/14 05:43:44;;;;;;;1.45;1.35;;;;;;;18.68;42.50;100148.59;5056462;28;20021;-49
2022/08/14 05:46:12;;;;;;;2.25;1.60;;;;;;;18.85;42.34;100174.94;5073931;28;20029;-49
2022/08/14 05:48:38;;;;;;;1.00;1.00;;;;;;;18.87;42.46;100170.06;5074357;28;20094;-48
2022/08/14 05:51:04;;;;;;;1.20;1.10;;;;;;;18.88;42.38;100180.69;5073492;28;20439;-49
2022/08/14 05:53:30;;;;;;;1.90;1.20;;;;;;;18.74;42.70;100165.84;5072296;28;20024;-48
2022/08/14 05:55:57;;;;;;;3.20;1.50;;;;;;;18.85;42.76;100175.78;5073797;28;20032;-47
2022/08/14 05:58:24;;;;;;;1.33;1.20;;;;;;;18.90;42.62;100180.44;5073775;28;20051;-50
2022/08/14 06:00:51;;;;;;;1.45;1.20;;;;;;;18.87;42.79;100176.34;5055907;28;20020;-47
2022/08/14 06:03:20;;;;;;;3.78;1.20;;;;;;;18.95;42.77;100185.94;5073755;28;20036;-48
2022/08/14 06:05:48;;;;;;;2.10;1.00;;;;;;;18.93;42.71;100183.47;5073834;28;20099;-54
2022/08/14 06:08:31;;;;;;;3.03;1.23;;;;;;;18.96;44.79;100187.56;5073492;28;20473;-47
2022/08/14 06:11:02;;;;;;;1.40;1.30;;;;;;;18.97;43.49;100181.06;5071970;28;20132;-48
2022/08/14 06:13:29;;;;;;;2.88;1.13;;;;;;;18.85;43.18;100156.75;5073876;28;20040;-48
2022/08/14 06:15:57;;;;;;;4.25;1.58;;;;;;;19.03;43.05;100180.03;5073833;28;20040;-52
2022/08/14 06:18:24;;;;;;;2.05;1.10;;;;;;;19.03;42.82;100169.16;5074139;28;20020;-48
2022/08/14 06:20:50;;;;;;;4.07;1.80;;;;;;;19.08;43.63;100177.38;5055991;28;20042;-51
2022/08/14 06:23:16;;;;;;;2.42;1.13;;;;;;;19.17;43.17;100180.47;5073900;28;20117;-50
2022/08/14 06:25:43;;;;;;;1.58;1.30;;;;;;;19.21;42.96;100176.13;5073957;28;20024;-48
2022/08/14 06:28:16;;;;;;;5.68;1.30;;;;;;;19.24;43.96;100178.34;5074123;28;20423;-52
2022/08/14 06:30:41;;;;;;;1.55;1.35;;;;;;;19.29;43.03;100178.38;5072506;28;20061;-46
2022/08/14 06:33:07;;;;;;;1.90;1.40;;;;;;;19.31;43.27;100178.94;5072158;28;20453;-51
2022/08/14 06:35:33;;;;;;;1.33;1.05;;;;;;;19.35;43.02;100173.78;5077326;28;20032;-48
2022/08/14 06:37:59;;;;;;;1.35;1.25;;;;;;;19.31;43.19;100170.75;5077274;28;20086;-47
2022/08/14 06:40:30;;;;;;;1.40;1.30;;;;;;;19.41;43.19;100186.38;5059146;28;20043;-52
2022/08/14 06:43:00;;;;;;;2.00;1.27;;;;;;;19.44;43.50;100183.13;5061602;28;20079;-48
2022/08/14 06:45:27;;;;;;;1.77;1.67;;;;;;;19.40;43.68;100162.13;5080356;28;20462;-51
2022/08/14 06:47:53;;;;;;;2.05;1.90;;;;;;;19.57;43.12;100183.78;5080116;28;20107;-51
2022/08/14 06:50:20;;;;;;;3.38;1.70;;;;;;;19.59;43.36;100187.06;5076644;28;20098;-47
2022/08/14 06:52:47;;;;;;;4.13;2.38;;;;;;;19.56;44.71;100180.25;5059218;28;20029;-51
2022/08/14 06:55:16;;;;;;;8.77;3.30;;;;;;;19.63;43.76;100180.00;5075786;28;20488;-49
2022/08/14 06:57:44;;;;;;;5.00;3.15;;;;;;;19.69;43.51;100181.72;5077434;28;20082;-49
2022/08/14 07:00:14;;;;;;;5.20;2.55;;;;;;;19.74;43.41;100187.19;5078414;28;20025;-48
2022/08/14 07:08:23;;;;;;;3.72;1.30;;;;;;;19.88;43.72;100193.03;5061915;28;20031;-48
2022/08/14 07:10:50;;;;;;;1.50;1.40;;;;;;;19.89;43.32;100191.94;5058676;28;20079;-49
2022/08/14 07:13:18;;;;;;;1.27;1.17;;;;;;;19.92;43.66;100186.78;5058583;28;20085;-49
2022/08/14 07:15:47;;;;;;;6.32;1.40;;;;;;;19.91;43.83;100181.63;5076964;28;20032;-51
2022/08/14 07:18:13;;;;;;;3.25;1.50;;;;;;;19.87;43.54;100164.13;5075770;28;20461;-50
2022/08/14 07:20:40;;;;;;;1.55;1.45;;;;;;;20.00;44.06;100182.78;5058790;28;20033;-49
2022/08/14 07:23:09;;;;;;;2.17;1.98;;;;;;;19.98;43.82;100163.09;5075709;28;20511;-50
2022/08/14 07:25:37;;;;;;;1.30;1.30;;;;;;;20.09;43.56;100172.16;5077020;28;20033;-52
2022/08/14 07:28:15;;;;;;;2.85;1.52;;;;;;;20.15;44.24;100168.41;5077291;28;20029;-50
2022/08/14 07:30:40;;;;;;;5.65;2.42;;;;;;;20.22;44.54;100174.41;5076657;28;20093;-48
2022/08/14 07:33:07;;;;;;;3.47;1.85;;;;;;;20.29;43.76;100166.81;5059320;28;20088;-49
2022/08/14 07:35:34;;;;;;;2.90;1.70;;;;;;;20.42;43.63;100179.16;5077427;28;20113;-48
2022/08/14 07:38:00;;;;;;;1.80;1.70;;;;;;;20.52;43.63;100169.38;5059546;28;20040;-49
2022/08/14 07:40:26;;;;;;;4.18;2.00;;;;;;;20.52;43.74;100150.28;5076731;28;20033;-46
2022/08/14 07:42:53;;;;;;;3.92;1.85;;;;;;;20.74;43.28;100170.03;5077425;28;20032;-49
2022/08/14 07:45:18;;;;;;;1.98;1.88;;;;;;;20.82;43.43;100166.78;5078163;28;20028;-48
2022/08/14 07:47:44;;;;;;;4.07;2.63;;;;;;;20.90;44.11;100154.50;5076857;28;20028;-49
2022/08/14 07:50:13;;;;;;;4.47;2.33;;;;;;;20.96;43.59;100152.63;5054553;28;20055;-48
2022/08/14 07:52:40;;;;;;;3.58;1.75;;;;;;;21.00;43.77;100161.91;5056326;28;20064;-46
2022/08/14 07:55:07;;;;;;;3.95;1.83;;;;;;;21.11;43.43;100157.28;5054863;28;20079;-52
2022/08/14 07:57:33;;;;;;;2.35;1.80;;;;;;;21.19;43.30;100157.56;5056169;28;20109;-47
2022/08/14 08:00:00;;;;;;;1.52;1.42;;;;;;;21.23;43.28;100149.66;5055971;28;20064;-49
2022/08/14 08:02:30;;;;;;;1.63;1.40;;;;;;;21.28;43.41;100146.91;5055983;28;20127;-48
2022/08/14 08:04:58;;;;;;;3.63;1.60;;;;;;;21.44;43.21;100155.91;5055643;28;20071;-48
2022/08/14 08:07:26;;;;;;;4.28;2.13;;;;;;;21.55;43.57;100149.38;5054811;28;20064;-46
2022/08/14 08:09:56;;;;;;;2.63;1.90;;;;;;;21.65;43.85;100138.44;5056425;28;20031;-49
2022/08/14 08:12:24;;;;;;;6.32;2.40;;;;;;;21.75;43.81;100134.03;5054827;28;20055;-48
2022/08/14 08:14:51;;;;;;;2.47;1.65;;;;;;;21.85;42.78;100128.56;5055109;28;20025;-50
2022/08/14 08:17:19;;;;;;;3.67;1.83;;;;;;;21.98;42.93;100116.22;5055191;28;20044;-50
2022/08/14 08:19:47;;;;;;;4.55;2.13;;;;;;;22.10;42.42;100122.22;5054219;28;20029;-47
2022/08/14 08:22:13;;;;;;;4.15;1.90;;;;;;;22.24;42.23;100122.44;5055720;28;20369;-47
2022/08/14 08:24:39;;;;;;;1.83;1.73;;;;;;;22.36;42.30;100122.97;5053872;28;20025;-47
2022/08/14 08:27:20;;;;;;;6.97;3.30;;;;;;;22.48;42.42;100113.59;5055505;28;20021;-48
2022/08/14 08:29:46;;;;;;;3.22;2.92;;;;;;;22.55;42.91;100101.25;5055708;28;20396;-48
2022/08/14 08:32:12;;;;;;;2.00;1.80;;;;;;;22.64;42.27;100100.63;5055624;28;20112;-47
2022/08/14 08:34:44;;;;;;;1.50;1.40;;;;;;;22.67;42.08;100081.72;5055458;28;20454;-50
2022/08/14 08:37:10;;;;;;;3.95;1.67;;;;;;;22.88;41.33;100092.53;5055423;28;20033;-49
2022/08/14 08:39:45;;;;;;;2.05;1.40;;;;;;;23.04;42.22;100087.81;5055373;28;20060;-47
2022/08/14 08:42:11;;;;;;;2.03;1.65;;;;;;;23.18;41.57;100080.56;5055480;28;20372;-47
2022/08/14 08:44:36;;;;;;;4.43;1.73;;;;;;;23.32;40.84;100077.97;5063675;28;20104;-53
2022/08/14 08:47:04;;;;;;;6.13;1.70;;;;;;;23.48;40.78;100079.47;5063889;28;20029;-52
2022/08/14 08:49:41;;;;;;;2.95;2.10;;;;;;;23.60;40.76;100067.28;5058981;28;20031;-48
2022/08/14 08:52:07;;;;;;;2.05;1.50;;;;;;;23.82;40.07;100064.06;5056612;28;20045;-48
2022/08/14 08:54:34;;;;;;;2.17;1.80;;;;;;;24.01;39.85;100059.41;5055383;28;20124;-48
2022/08/14 08:56:59;;;;;;;4.53;1.77;;;;;;;24.23;39.98;100063.53;5054378;28;20478;-51
2022/08/14 08:59:31;;;;;;;1.42;1.33;;;;;;;24.48;38.91;100062.34;5054908;28;20041;-50
2022/08/14 09:01:59;;;;;;;3.08;1.95;;;;;;;25.01;38.42;100042.09;5037626;28;20446;-50
2022/08/14 09:04:29;;;;;;;2.25;1.30;;;;;;;26.44;36.44;100055.00;5055243;28;20029;-51
2022/08/14 09:06:56;;;;;;;2.47;1.02;;;;;;;27.77;34.47;100056.41;5055497;28;20032;-49
2022/08/14 09:09:25;;;;;;;2.33;1.40;;;;;;;28.91;33.45;100049.09;5058501;28;20398;-51
2022/08/14 09:11:54;;;;;;;2.90;1.20;;;;;;;29.76;31.52;100042.06;5057728;28;20028;-48
2022/08/14 09:14:22;;;;;;;4.30;1.33;;;;;;;30.59;30.97;100038.59;5056972;28;20029;-49
2022/08/14 09:16:49;;;;;;;1.92;1.50;;;;;;;31.16;29.26;100039.84;5058155;28;20029;-46
2022/08/14 09:19:15;;;;;;;4.95;1.48;;;;;;;31.44;29.75;100042.81;5059551;28;20035;-47
2022/08/14 09:21:41;;;;;;;3.28;1.30;;;;;;;32.28;28.56;100037.94;5021356;28;20040;-50
2022/08/14 09:24:08;;;;;;;4.68;1.38;;;;;;;32.95;27.60;100035.53;5055517;28;20119;-47
2022/08/14 09:26:35;;;;;;;3.78;1.52;;;;;;;33.50;27.14;100028.22;5038181;28;20377;-49
2022/08/14 09:29:01;;;;;;;3.38;1.67;;;;;;;34.14;25.98;100020.59;5055749;28;20120;-46
2022/08/14 09:31:29;;;;;;;4.85;1.40;;;;;;;34.84;25.55;100016.09;5054654;28;20335;-49
2022/08/14 09:34:22;;;;;;;1.30;1.20;;;;;;;35.18;23.78;100021.09;5055019;28;20082;-49
2022/08/14 09:37:05;;;;;;;2.08;1.30;;;;;;;35.60;23.00;100004.28;5053763;28;20388;-48
2022/08/14 09:39:44;;;;;;;5.20;1.38;;;;;;;36.14;22.49;100007.88;5037049;28;20025;-51
2022/08/14 09:42:43;;;;;;;1.27;1.08;;;;;;;36.80;21.24;100005.53;5054823;28;20056;-49
2022/08/14 09:45:18;;;;;;;5.57;1.52;;;;;;;36.81;19.16;99995.97;5053733;28;20028;-50
2022/08/14 09:47:52;;;;;;;1.73;1.33;;;;;;;37.32;21.24;100000.06;5054534;28;20029;-46
2022/08/14 09:50:22;;;;;;;1.30;1.20;;;;;;;37.81;21.24;99998.03;5060475;28;20053;-46
2022/08/14 09:52:54;;;;;;;1.20;1.10;;;;;;;38.45;21.13;99996.75;5074244;28;20036;-49
2022/08/14 09:55:22;;;;;;;2.13;1.70;;;;;;;38.56;18.58;99989.22;5073212;28;20036;-47
2022/08/14 09:57:50;;;;;;;3.53;1.50;;;;;;;38.72;19.35;99991.66;5073923;28;20496;-47
2022/08/14 10:00:18;;;;;;;0.93;0.93;;;;;;;39.28;19.91;99981.75;5073988;28;20480;-46
2022/08/14 10:02:55;;;;;;;3.38;1.08;;;;;;;39.40;17.79;99983.31;5073954;28;20032;-46
2022/08/14 10:05:37;;;;;;;2.35;1.23;;;;;;;39.66;17.13;99975.69;5056488;28;20422;-48
2022/08/14 10:08:04;;;;;;;1.45;1.02;;;;;;;40.31;18.56;99969.88;5057088;28;20181;-49
2022/08/14 10:10:33;;;;;;;1.92;1.40;;;;;;;40.88;17.19;99968.78;5077619;28;20036;-47
2022/08/14 10:13:00;;;;;;;2.15;1.55;;;;;;;41.00;17.83;99962.66;5077857;28;20021;-49
2022/08/14 10:15:29;;;;;;;4.82;1.30;;;;;;;41.26;16.39;99966.09;5077554;28;20037;-49
2022/08/14 10:18:13;;;;;;;3.78;1.60;;;;;;;41.70;15.10;99959.66;5078041;28;20060;-48
2022/08/14 10:20:50;;;;;;;1.20;1.10;;;;;;;41.95;16.08;99948.06;5077512;28;20032;-48
2022/08/14 10:23:19;;;;;;;1.48;1.10;;;;;;;41.49;16.81;99957.00;5077501;28;20043;-49
2022/08/14 10:25:49;;;;;;;1.15;1.02;;;;;;;41.81;15.88;99941.78;5077188;28;20020;-48
2022/08/14 10:28:16;;;;;;;1.17;1.00;;;;;;;42.49;15.40;99955.88;5077843;28;20082;-48
2022/08/14 10:30:47;;;;;;;4.45;1.10;;;;;;;42.77;14.67;99948.19;5077948;28;20469;-50
2022/08/14 10:33:31;;;;;;;3.50;1.50;;;;;;;41.85;12.24;99940.53;5059514;28;20418;-53
2022/08/14 10:36:01;;;;;;;1.20;1.10;;;;;;;41.98;15.03;99941.59;5077290;28;20029;-48
2022/08/14 10:38:34;;;;;;;1.40;1.30;;;;;;;42.45;13.71;99943.81;5077148;28;20043;-49
2022/08/14 10:41:16;;;;;;;1.40;1.27;;;;;;;42.65;12.77;99937.50;5076971;28;20032;-49
2022/08/14 10:43:44;;;;;;;2.75;1.25;;;;;;;42.73;12.84;99933.34;5077192;28;20020;-49
2022/08/14 10:46:14;;;;;;;4.40;1.38;;;;;;;42.79;13.96;99928.78;5076068;28;20399;-52
2022/08/14 10:48:40;;;;;;;2.58;1.52;;;;;;;43.02;13.78;99922.41;5077275;28;20031;-47
2022/08/14 10:51:06;;;;;;;2.30;1.35;;;;;;;43.41;13.89;99925.75;5076742;28;20481;-47
2022/08/14 10:53:34;;;;;;;2.83;1.20;;;;;;;44.08;13.11;99931.31;5076831;28;20031;-47
2022/08/14 10:56:04;;;;;;;4.30;1.38;;;;;;;44.44;12.63;99930.53;5076920;28;20044;-50
2022/08/14 10:58:31;;;;;;;3.67;1.10;;;;;;;44.65;12.50;99926.44;5058912;28;20473;-49
2022/08/14 11:01:06;;;;;;;1.40;1.30;;;;;;;44.46;10.56;99928.06;5059239;28;20032;-48
2022/08/14 11:03:47;;;;;;;1.50;1.15;;;;;;;44.69;10.77;99913.00;5059087;28;20035;-51
2022/08/14 11:06:19;;;;;;;4.43;1.42;;;;;;;43.44;11.67;99922.88;5077189;28;20075;-50
2022/08/14 11:08:47;;;;;;;4.78;1.40;;;;;;;42.80;11.31;99913.44;5076735;28;20028;-48
2022/08/14 11:11:13;;;;;;;1.38;1.10;;;;;;;42.84;13.08;99904.91;5076586;28;20032;-51
2022/08/14 11:13:42;;;;;;;2.47;1.42;;;;;;;43.96;11.94;99907.31;5076774;28;20353;-49
2022/08/14 11:16:09;;;;;;;5.65;1.30;;;;;;;44.15;12.28;99890.75;5075159;28;20464;-48
2022/08/14 11:18:36;;;;;;;1.40;1.10;;;;;;;44.63;12.07;99892.91;5076783;28;20425;-52
2022/08/14 11:21:05;;;;;;;7.13;1.27;;;;;;;45.18;10.51;99890.28;5076135;28;20477;-49
2022/08/14 11:23:37;;;;;;;8.63;1.70;;;;;;;44.77;10.49;99886.06;5076968;28;20464;-49
2022/08/14 11:26:05;;;;;;;2.30;1.15;;;;;;;43.14;12.51;99891.91;5058729;28;20029;-49
2022/08/14 11:28:34;;;;;;;3.17;1.40;;;;;;;40.73;12.76;99889.19;5076593;28;20039;-47
2022/08/14 11:31:02;;;;;;;2.67;1.85;;;;;;;39.36;14.20;99892.63;5058808;28;20028;-48
2022/08/14 11:33:31;;;;;;;2.50;1.67;;;;;;;38.81;14.50;99893.81;5058572;28;20074;-49
2022/08/14 11:36:00;;;;;;;7.00;1.25;;;;;;;39.12;14.48;99871.78;5076499;28;20032;-47
2022/08/14 11:38:27;;;;;;;2.58;1.17;;;;;;;40.44;13.64;99878.97;5058290;28;20028;-49
2022/08/14 11:40:57;;;;;;;1.80;1.25;;;;;;;39.52;13.27;99882.97;5076218;28;20049;-48
2022/08/14 11:43:24;;;;;;;1.10;1.10;;;;;;;40.46;13.31;99877.75;5076454;28;20036;-49
2022/08/14 11:45:50;;;;;;;2.13;1.63;;;;;;;41.78;12.58;99868.09;5076143;28;20326;-48
2022/08/14 11:48:19;;;;;;;2.15;1.10;;;;;;;42.84;12.08;99866.16;5058023;28;20028;-50